createdAt,value
2022-08-08T00:02:03.387Z,1.55
2022-08-08T00:04:48.857Z,1.75
2022-08-08T00:07:23.647Z,1.80
2022-08-08T00:10:13.869Z,1.60
2022-08-08T00:12:56.591Z,1.60
2022-08-08T00:15:57.056Z,1.90
2022-08-08T00:19:09.164Z,2.15
2022-08-08T00:21:44.304Z,1.88
2022-08-08T00:24:24.125Z,1.60
2022-08-08T00:27:05.806Z,1.80
2022-08-08T00:29:48.653Z,1.73
2022-08-08T00:32:34.204Z,1.70
2022-08-08T00:35:30.345Z,1.60
2022-08-08T00:38:16.932Z,1.50
2022-08-08T00:42:08.828Z,1.75
2022-08-08T00:45:27.181Z,1.48
2022-08-08T00:48:35.219Z,1.50
2022-08-08T00:51:42.252Z,1.30
2022-08-08T00:54:36.513Z,1.73
2022-08-08T00:57:41.239Z,1.42
2022-08-08T01:00:24.317Z,1.40
2022-08-08T01:06:37.320Z,2.03
2022-08-08T01:09:40.916Z,1.95
2022-08-08T01:13:15.029Z,2.35
2022-08-08T01:16:27.729Z,2.22
2022-08-08T01:19:52.179Z,2.10
2022-08-08T01:22:48.872Z,2.13
2022-08-08T01:25:46.239Z,2.00
2022-08-08T01:28:38.337Z,2.10
2022-08-08T01:32:02.919Z,2.38
2022-08-08T01:34:37.649Z,2.20
2022-08-08T01:37:56.917Z,2.40
2022-08-08T01:41:43.851Z,2.80
2022-08-08T01:44:27.568Z,2.70
2022-08-08T01:50:20.749Z,1.90
2022-08-08T01:55:17.936Z,2.08
2022-08-08T01:56:34.154Z,2.17
2022-08-08T01:59:13.249Z,2.15
2022-08-08T02:02:18.327Z,2.13
2022-08-08T02:05:14.479Z,2.13
2022-08-08T02:07:57.670Z,1.90
2022-08-08T02:10:46.006Z,1.95
2022-08-08T02:13:54.835Z,2.10
2022-08-08T02:16:49.590Z,1.80
2022-08-08T02:19:57.110Z,1.70
2022-08-08T02:22:54.700Z,1.70
2022-08-08T02:25:47.329Z,2.28
2022-08-08T02:28:38.027Z,1.73
2022-08-08T02:31:58.082Z,1.88
2022-08-08T02:35:10.963Z,1.70
2022-08-08T02:38:09.075Z,1.70
2022-08-08T02:41:00.831Z,1.80
2022-08-08T02:44:39.320Z,1.70
2022-08-08T02:46:43.903Z,1.60
2022-08-08T02:49:50.895Z,1.50
2022-08-08T02:52:50.324Z,1.40
2022-08-08T02:55:59.856Z,1.45
2022-08-08T02:59:17.298Z,1.38
2022-08-08T03:02:33.225Z,1.38
2022-08-08T03:05:45.429Z,1.40
2022-08-08T03:08:54.535Z,1.73
2022-08-08T03:12:02.136Z,1.58
2022-08-08T03:15:56.873Z,1.60
2022-08-08T03:18:07.993Z,1.55
2022-08-08T03:20:51.962Z,2.47
2022-08-08T03:23:30.327Z,1.50
2022-08-08T03:26:08.785Z,1.80
2022-08-08T03:28:45.134Z,1.52
2022-08-08T03:32:06.490Z,1.80
2022-08-08T03:34:29.475Z,1.60
2022-08-08T03:36:57.576Z,2.05
2022-08-08T03:39:26.005Z,1.77
2022-08-08T03:42:28.290Z,2.05
2022-08-08T03:44:44.941Z,1.75
2022-08-08T03:47:23.412Z,1.73
2022-08-08T03:50:00.793Z,2.28
2022-08-08T03:52:44.462Z,1.80
2022-08-08T03:55:55.148Z,1.40
2022-08-08T03:58:34.050Z,1.73
2022-08-08T04:01:23.020Z,1.58
2022-08-08T04:03:56.900Z,1.63
2022-08-08T04:06:32.887Z,1.73
2022-08-08T04:09:11.387Z,1.55
2022-08-08T04:11:59.046Z,2.13
2022-08-08T04:14:44.933Z,1.77
2022-08-08T04:17:15.653Z,1.60
2022-08-08T04:20:05.336Z,1.73
2022-08-08T04:22:38.417Z,1.70
2022-08-08T04:25:15.285Z,2.20
2022-08-08T04:28:10.662Z,1.65
2022-08-08T04:30:36.554Z,1.40
2022-08-08T04:33:08.195Z,2.08
2022-08-08T04:35:40.726Z,1.48
2022-08-08T04:38:21.971Z,1.40
2022-08-08T04:41:36.705Z,2.15
2022-08-08T04:44:06.915Z,2.00
2022-08-08T04:46:35.216Z,2.20
2022-08-08T04:51:55.157Z,2.15
2022-08-08T04:54:41.885Z,2.50
2022-08-08T04:57:12.145Z,1.65
2022-08-08T04:59:42.056Z,1.98
2022-08-08T05:02:13.763Z,1.77
2022-08-08T05:04:59.473Z,1.90
2022-08-08T05:07:37.810Z,2.10
2022-08-08T05:10:13.875Z,2.10
2022-08-08T05:13:02.041Z,2.13
2022-08-08T05:16:51.148Z,1.98
2022-08-08T05:18:22.500Z,1.77
2022-08-08T05:20:56.696Z,1.95
2022-08-08T05:23:26.625Z,1.60
2022-08-08T05:26:00.545Z,1.80
2022-08-08T05:28:55.941Z,1.83
2022-08-08T05:32:02.543Z,2.17
2022-08-08T05:34:32.474Z,1.70
2022-08-08T05:37:15.834Z,1.80
2022-08-08T05:39:51.126Z,1.70
2022-08-08T05:42:35.081Z,1.75
2022-08-08T05:45:24.611Z,1.58
2022-08-08T05:48:00.365Z,1.80
2022-08-08T05:50:33.518Z,1.63
2022-08-08T05:53:55.446Z,1.80
2022-08-08T05:56:08.280Z,1.85
2022-08-08T05:58:57.983Z,2.10
2022-08-08T06:01:51.271Z,2.03
2022-08-08T06:04:30.267Z,1.70
2022-08-08T06:07:01.912Z,1.55
2022-08-08T06:10:00.578Z,1.92
2022-08-08T06:12:31.063Z,1.60
2022-08-08T06:15:06.210Z,2.13
2022-08-08T06:17:51.113Z,1.60
2022-08-08T06:20:30.527Z,2.20
2022-08-08T06:23:00.909Z,2.10
2022-08-08T06:26:35.908Z,2.30
2022-08-08T06:28:37.156Z,2.92
2022-08-08T06:31:15.680Z,3.40
2022-08-08T06:34:26.727Z,3.08
2022-08-08T06:37:02.157Z,3.60
2022-08-08T06:39:56.872Z,3.20
2022-08-08T06:42:31.607Z,3.80
2022-08-08T06:45:08.122Z,3.17
2022-08-08T06:47:51.925Z,3.20
2022-08-08T06:50:32.244Z,3.40
2022-08-08T06:53:14.190Z,3.30
2022-08-08T06:56:00.684Z,3.47
2022-08-08T06:58:37.130Z,3.40
2022-08-08T07:02:16.763Z,3.85
2022-08-08T07:04:45.422Z,3.50
2022-08-08T07:07:27.302Z,3.17
2022-08-08T07:10:08.335Z,3.70
2022-08-08T07:13:03.072Z,3.50
2022-08-08T07:16:04.919Z,3.25
2022-08-08T07:19:16.162Z,3.45
2022-08-08T07:22:12.081Z,3.13
2022-08-08T07:25:02.838Z,4.00
2022-08-08T07:27:47.199Z,4.63
2022-08-08T07:30:32.317Z,4.22
2022-08-08T07:33:03.667Z,5.13
2022-08-08T07:35:35.653Z,5.57
2022-08-08T07:38:10.386Z,5.60
2022-08-08T07:40:52.117Z,5.10
2022-08-08T07:43:36.743Z,5.40
2022-08-08T07:48:59.458Z,5.72
2022-08-08T07:51:45.567Z,5.10
2022-08-08T07:54:40.047Z,4.80
2022-08-08T07:57:17.446Z,4.30
2022-08-08T07:59:54.747Z,3.65
2022-08-08T08:02:35.728Z,4.47
2022-08-08T08:05:21.171Z,3.67
2022-08-08T08:07:55.837Z,3.00
2022-08-08T08:10:36.302Z,3.65
2022-08-08T08:13:42.628Z,4.03
2022-08-08T08:19:09.570Z,3.10
2022-08-08T08:21:52.699Z,3.05
2022-08-08T08:24:48.435Z,3.47
2022-08-08T08:27:22.248Z,3.03
2022-08-08T08:29:55.237Z,3.80
2022-08-08T08:32:35.681Z,4.28
2022-08-08T08:35:11.219Z,3.08
2022-08-08T08:38:12.775Z,2.90
2022-08-08T08:40:34.767Z,2.20
2022-08-08T08:43:09.036Z,2.55
2022-08-08T08:45:44.648Z,2.55
2022-08-08T08:48:16.469Z,3.60
2022-08-08T08:50:53.838Z,2.75
2022-08-08T08:53:54.891Z,2.05
2022-08-08T08:56:24.023Z,2.60
2022-08-08T08:59:01.811Z,2.08
2022-08-08T09:01:36.067Z,2.60
2022-08-08T09:07:08.780Z,2.20
2022-08-08T09:09:57.243Z,2.15
2022-08-08T09:12:42.407Z,1.90
2022-08-08T09:15:37.059Z,2.03
2022-08-08T09:18:05.698Z,2.08
2022-08-08T09:22:04.771Z,2.20
2022-08-08T09:23:33.708Z,2.25
2022-08-08T09:26:21.759Z,1.95
2022-08-08T09:28:52.599Z,2.20
2022-08-08T09:31:56.643Z,2.40
2022-08-08T09:34:35.561Z,2.55
2022-08-08T09:37:57.950Z,2.30
2022-08-08T09:40:11.145Z,1.80
2022-08-08T09:42:51.741Z,2.10
2022-08-08T09:46:00.939Z,1.95
2022-08-08T09:48:22.072Z,2.35
2022-08-08T09:50:59.433Z,2.35
2022-08-08T09:54:00.002Z,2.15
2022-08-08T09:56:41.041Z,2.33
2022-08-08T09:59:50.226Z,2.47
2022-08-08T10:02:12.604Z,2.80
2022-08-08T10:04:47.715Z,2.38
2022-08-08T10:07:17.706Z,2.42
2022-08-08T10:09:59.461Z,2.40
2022-08-08T10:12:53.994Z,2.17
2022-08-08T10:15:29.317Z,2.72
2022-08-08T10:18:06.710Z,2.40
2022-08-08T10:20:58.147Z,2.47
2022-08-08T10:23:42.001Z,2.15
2022-08-08T10:26:52.301Z,2.40
2022-08-08T10:29:44.297Z,2.80
2022-08-08T10:32:34.333Z,2.22
2022-08-08T10:35:10.518Z,2.65
2022-08-08T10:37:51.719Z,2.50
2022-08-08T10:40:21.329Z,2.53
2022-08-08T10:42:55.456Z,2.20
2022-08-08T10:45:24.249Z,2.58
2022-08-08T10:48:00.007Z,3.65
2022-08-08T10:50:33.617Z,3.17
2022-08-08T10:53:04.979Z,2.50
2022-08-08T10:55:45.709Z,2.13
2022-08-08T10:58:15.927Z,2.55
2022-08-08T11:00:48.306Z,3.03
2022-08-08T11:03:36.389Z,2.60
2022-08-08T11:06:12.284Z,2.70
2022-08-08T11:08:53.093Z,2.70
2022-08-08T11:11:32.571Z,2.33
2022-08-08T11:14:15.878Z,2.25
2022-08-08T11:16:47.152Z,3.00
2022-08-08T11:19:18.053Z,2.45
2022-08-08T11:21:55.671Z,2.78
2022-08-08T11:24:29.017Z,2.40
2022-08-08T11:30:18.590Z,2.38
2022-08-08T11:32:41.212Z,2.50
2022-08-08T11:35:27.786Z,2.53
2022-08-08T11:38:35.257Z,2.85
2022-08-08T11:40:52.996Z,2.90
2022-08-08T11:43:25.952Z,2.67
2022-08-08T11:46:17.584Z,2.47
2022-08-08T11:48:47.971Z,2.53
2022-08-08T11:51:30.215Z,2.97
2022-08-08T11:54:27.342Z,2.53
2022-08-08T11:57:16.595Z,2.70
2022-08-08T12:00:02.787Z,2.88
2022-08-08T12:02:55.036Z,2.55
2022-08-08T12:05:40.772Z,2.80
2022-08-08T12:08:11.371Z,2.72
2022-08-08T12:10:51.531Z,2.95
2022-08-08T12:13:37.704Z,2.88
2022-08-08T12:16:16.625Z,2.70
2022-08-08T12:18:53.071Z,3.00
2022-08-08T12:21:59.537Z,2.88
2022-08-08T12:24:19.876Z,2.58
2022-08-08T12:26:54.122Z,3.13
2022-08-08T12:29:40.155Z,2.97
2022-08-08T12:32:17.364Z,2.90
2022-08-08T12:35:13.404Z,3.38
2022-08-08T12:38:01.875Z,3.22
2022-08-08T12:40:54.846Z,3.50
2022-08-08T12:43:46.353Z,3.80
2022-08-08T12:46:24.913Z,3.85
2022-08-08T12:49:22.075Z,3.35
2022-08-08T12:51:49.892Z,3.05
2022-08-08T12:54:41.014Z,3.13
2022-08-08T12:57:24.461Z,2.92
2022-08-08T13:00:04.945Z,2.92
2022-08-08T13:02:37.893Z,3.53
2022-08-08T13:05:27.104Z,3.13
2022-08-08T13:08:33.134Z,3.67
2022-08-08T13:11:05.398Z,3.40
2022-08-08T13:13:38.336Z,3.78
2022-08-08T13:16:37.770Z,3.10
2022-08-08T13:19:12.308Z,3.28
2022-08-08T13:21:53.502Z,3.40
2022-08-08T13:24:42.248Z,3.63
2022-08-08T13:27:18.364Z,3.00
2022-08-08T13:30:18.696Z,3.33
2022-08-08T13:32:55.834Z,2.97
2022-08-08T13:35:29.514Z,3.00
2022-08-08T13:40:45.096Z,3.13
2022-08-08T13:43:16.282Z,3.80
2022-08-08T13:45:47.723Z,2.60
2022-08-08T13:48:25.704Z,2.78
2022-08-08T13:51:17.387Z,3.45
2022-08-08T13:54:03.092Z,3.90
2022-08-08T13:56:44.942Z,3.38
2022-08-08T13:59:46.488Z,3.25
2022-08-08T14:02:20.771Z,2.78
2022-08-08T14:05:05.116Z,3.25
2022-08-08T14:07:52.002Z,2.83
2022-08-08T14:10:33.106Z,2.88
2022-08-08T14:13:31.308Z,2.83
2022-08-08T14:16:04.532Z,2.80
2022-08-08T14:18:53.340Z,2.75
2022-08-08T14:21:39.377Z,3.25
2022-08-08T14:24:09.728Z,2.90
2022-08-08T14:26:46.169Z,3.33
2022-08-08T14:29:28.127Z,3.28
2022-08-08T14:32:09.065Z,3.03
2022-08-08T14:34:54.322Z,2.90
2022-08-08T14:37:27.850Z,3.17
2022-08-08T14:40:19.087Z,2.78
2022-08-08T14:42:56.571Z,3.13
2022-08-08T14:45:33.575Z,2.67
2022-08-08T14:48:17.870Z,2.50
2022-08-08T14:51:07.416Z,2.65
2022-08-08T14:53:55.827Z,3.20
2022-08-08T14:56:26.391Z,2.78
2022-08-08T14:58:56.257Z,2.90
2022-08-08T15:01:37.311Z,2.90
2022-08-08T15:04:13.127Z,2.50
2022-08-08T15:06:42.455Z,2.47
2022-08-08T15:09:13.138Z,2.30
2022-08-08T15:11:43.342Z,2.95
2022-08-08T15:14:25.269Z,2.78
2022-08-08T15:16:56.997Z,2.50
2022-08-08T15:19:28.220Z,3.08
2022-08-08T15:21:57.980Z,2.33
2022-08-08T15:24:31.241Z,3.00
2022-08-08T15:27:12.238Z,2.30
2022-08-08T15:29:49.365Z,2.50
2022-08-08T15:32:20.899Z,3.33
2022-08-08T15:34:51.350Z,2.97
2022-08-08T15:37:20.092Z,2.58
2022-08-08T15:39:48.460Z,3.03
2022-08-08T15:42:33.147Z,2.67
2022-08-08T15:45:02.538Z,2.42
2022-08-08T15:47:31.961Z,2.58
2022-08-08T15:50:01.660Z,3.10
2022-08-08T15:52:33.200Z,2.70
2022-08-08T15:55:02.992Z,2.60
2022-08-08T15:57:35.445Z,2.60
2022-08-08T16:00:26.826Z,2.65
2022-08-08T16:02:57.997Z,2.65
2022-08-08T16:05:36.038Z,2.47
2022-08-08T16:08:20.036Z,2.90
2022-08-08T16:13:02.009Z,3.00
2022-08-08T16:13:46.296Z,3.08
2022-08-08T16:16:17.448Z,3.00
2022-08-08T16:18:53.270Z,2.72
2022-08-08T16:21:29.634Z,2.45
2022-08-08T16:24:23.973Z,3.00
2022-08-08T16:26:52.441Z,2.75
2022-08-08T16:29:37.026Z,3.05
2022-08-08T16:32:11.224Z,2.65
2022-08-08T16:37:18.461Z,3.38
2022-08-08T16:40:01.813Z,3.17
2022-08-08T16:42:34.712Z,2.97
2022-08-08T16:45:11.370Z,2.90
2022-08-08T16:47:52.654Z,2.65
2022-08-08T16:50:20.751Z,2.35
2022-08-08T16:55:01.833Z,2.88
2022-08-08T16:55:52.442Z,2.92
2022-08-08T16:58:26.737Z,2.67
2022-08-08T17:00:58.024Z,3.15
2022-08-08T17:03:59.107Z,2.58
2022-08-08T17:06:35.645Z,2.95
2022-08-08T17:09:06.137Z,3.25
2022-08-08T17:11:48.227Z,2.80
2022-08-08T17:14:27.567Z,3.17
2022-08-08T17:17:41.470Z,2.50
2022-08-08T17:19:56.379Z,2.70
2022-08-08T17:22:39.384Z,3.13
2022-08-08T17:25:11.631Z,2.67
2022-08-08T17:27:46.393Z,2.65
2022-08-08T17:30:27.234Z,2.88
2022-08-08T17:34:36.030Z,3.17
2022-08-08T17:35:56.122Z,2.78
2022-08-08T17:38:34.549Z,3.00
2022-08-08T17:41:02.658Z,2.53
2022-08-08T17:43:32.243Z,2.95
2022-08-08T17:46:45.840Z,3.42
2022-08-08T17:49:23.875Z,3.30
2022-08-08T17:51:54.422Z,3.00
2022-08-08T17:54:29.051Z,3.10
2022-08-08T17:56:57.442Z,4.38
2022-08-08T17:59:30.357Z,3.10
2022-08-08T18:02:11.135Z,3.17
2022-08-08T18:04:50.348Z,2.92
2022-08-08T18:08:03.499Z,3.47
2022-08-08T18:10:08.161Z,3.30
2022-08-08T18:12:37.312Z,3.33
2022-08-08T18:15:09.645Z,3.40
2022-08-08T18:18:05.090Z,2.67
2022-08-08T18:20:44.538Z,3.63
2022-08-08T18:23:15.529Z,3.35
2022-08-08T18:25:44.389Z,3.50
2022-08-08T18:28:13.471Z,3.58
2022-08-08T18:30:42.962Z,3.45
2022-08-08T18:33:36.295Z,3.50
2022-08-08T18:36:04.331Z,3.42
2022-08-08T18:38:34.271Z,3.67
2022-08-08T18:41:03.304Z,3.80
2022-08-08T18:43:43.188Z,3.55
2022-08-08T18:46:54.754Z,3.78
2022-08-08T18:49:01.089Z,3.65
2022-08-08T18:51:53.627Z,3.20
2022-08-08T18:54:24.635Z,3.88
2022-08-08T18:56:58.272Z,4.25
2022-08-08T18:59:34.316Z,2.90
2022-08-08T19:02:24.967Z,3.78
2022-08-08T19:04:56.013Z,3.75
2022-08-08T19:07:29.841Z,3.67
2022-08-08T19:10:13.624Z,3.85
2022-08-08T19:12:44.408Z,3.75
2022-08-08T19:15:21.777Z,3.38
2022-08-08T19:18:30.685Z,3.70
2022-08-08T19:20:43.116Z,3.25
2022-08-08T19:23:14.762Z,3.03
2022-08-08T19:26:22.535Z,3.55
2022-08-08T19:28:33.261Z,3.50
2022-08-08T19:31:09.277Z,3.03
2022-08-08T19:33:51.976Z,2.80
2022-08-08T19:36:28.261Z,2.70
2022-08-08T19:38:57.473Z,4.05
2022-08-08T19:41:29.647Z,3.35
2022-08-08T19:44:03.005Z,3.10
2022-08-08T19:46:33.669Z,3.65
2022-08-08T19:49:03.035Z,3.10
2022-08-08T19:51:34.743Z,3.47
2022-08-08T19:54:10.510Z,3.38
2022-08-08T19:56:48.550Z,3.40
2022-08-08T19:59:18.843Z,3.05
2022-08-08T20:02:03.375Z,3.10
2022-08-08T20:04:33.622Z,3.15
2022-08-08T20:08:27.072Z,2.95
2022-08-08T20:09:55.796Z,2.90
2022-08-08T20:12:32.142Z,3.42
2022-08-08T20:15:14.203Z,3.13
2022-08-08T20:17:47.771Z,3.10
2022-08-08T20:20:19.690Z,3.47
2022-08-08T20:22:53.947Z,3.28
2022-08-08T20:25:29.649Z,3.55
2022-08-08T20:28:04.795Z,3.10
2022-08-08T20:30:52.990Z,3.38
2022-08-08T20:35:58.788Z,3.92
2022-08-08T20:38:32.785Z,3.63
2022-08-08T20:41:17.128Z,3.97
2022-08-08T20:43:49.581Z,3.47
2022-08-08T20:46:21.312Z,3.83
2022-08-08T20:48:58.349Z,4.18
2022-08-08T20:51:31.758Z,3.15
2022-08-08T20:54:04.877Z,3.70
2022-08-08T20:57:04.651Z,3.55
2022-08-08T20:59:31.172Z,3.67
2022-08-08T21:02:06.393Z,4.20
2022-08-08T21:04:36.831Z,3.70
2022-08-08T21:07:08.535Z,3.80
2022-08-08T21:10:02.025Z,3.67
2022-08-08T21:12:38.384Z,3.72
2022-08-08T21:15:09.909Z,3.42
2022-08-08T21:17:38.144Z,4.07
2022-08-08T21:20:08.073Z,3.92
2022-08-08T21:22:36.997Z,4.15
2022-08-08T21:25:13.517Z,3.80
2022-08-08T21:28:14.714Z,3.15
2022-08-08T21:30:30.474Z,3.05
2022-08-08T21:32:59.244Z,4.13
2022-08-08T21:36:14.950Z,3.58
2022-08-08T21:38:18.191Z,3.85
2022-08-08T21:40:55.658Z,9.50
2022-08-08T21:43:33.498Z,3.90
2022-08-08T21:48:06.920Z,4.70
2022-08-08T21:48:57.004Z,3.38
2022-08-08T21:54:17.235Z,3.30
2022-08-08T21:54:37.495Z,3.95
2022-08-08T21:57:09.512Z,3.47
2022-08-08T22:00:01.373Z,3.42
2022-08-08T22:02:26.521Z,3.80
2022-08-08T22:04:59.168Z,3.58
2022-08-08T22:07:40.249Z,3.72
2022-08-08T22:10:18.487Z,3.67
2022-08-08T22:13:17.005Z,3.63
2022-08-08T22:15:59.024Z,3.45
2022-08-08T22:18:30.908Z,3.72
2022-08-08T22:21:13.944Z,3.70
2022-08-08T22:23:50.745Z,3.55
2022-08-08T22:26:28.648Z,3.60
2022-08-08T22:29:14.411Z,3.67
2022-08-08T22:31:58.720Z,4.05
2022-08-08T22:34:39.255Z,3.97
2022-08-08T22:37:14.939Z,3.20
2022-08-08T22:40:01.316Z,3.58
2022-08-08T22:42:31.794Z,3.40
2022-08-08T22:45:09.277Z,3.78
2022-08-08T22:47:46.833Z,3.30
2022-08-08T22:50:27.216Z,3.65
2022-08-08T22:54:32.832Z,3.13
2022-08-08T22:55:58.860Z,3.72
2022-08-08T22:58:34.351Z,3.45
2022-08-08T23:01:16.591Z,3.40
2022-08-08T23:03:55.799Z,3.47
2022-08-08T23:06:27.302Z,3.70
2022-08-08T23:09:00.064Z,3.70
2022-08-08T23:14:19.455Z,3.78
2022-08-08T23:16:57.552Z,3.38
2022-08-08T23:19:30.993Z,3.50
2022-08-08T23:22:04.220Z,3.70
2022-08-08T23:24:41.732Z,3.42
2022-08-08T23:27:37.975Z,3.42
2022-08-08T23:30:03.584Z,3.10
2022-08-08T23:32:33.233Z,3.35
2022-08-08T23:35:01.522Z,3.35
2022-08-08T23:38:00.833Z,3.60
2022-08-08T23:40:24.834Z,4.50
2022-08-08T23:42:53.242Z,3.63
2022-08-08T23:49:04.182Z,3.72
2022-08-08T23:49:08.769Z,3.83
2022-08-08T23:50:58.592Z,3.40
2022-08-08T23:53:56.105Z,3.38
2022-08-08T23:56:23.924Z,3.47
2022-08-08T23:59:01.040Z,2.95
